createdAt,value
2023-12-10T00:00:43.694Z,99139.06
2023-12-10T00:03:11.820Z,99132.88
2023-12-10T00:05:39.991Z,99134.31
2023-12-10T00:08:07.888Z,99142.88
2023-12-10T00:10:35.860Z,99140.94
2023-12-10T00:13:03.696Z,99146.88
2023-12-10T00:15:32.965Z,99150.75
2023-12-10T00:18:01.571Z,99150.22
2023-12-10T00:20:29.555Z,99143.53
2023-12-10T00:22:57.753Z,99145.19
2023-12-10T00:25:27.318Z,99145.13
2023-12-10T00:27:55.335Z,99146.88
2023-12-10T00:30:23.363Z,99149.78
2023-12-10T00:32:53.200Z,99158.09
2023-12-10T00:35:21.093Z,99152.44
2023-12-10T00:37:49.004Z,99156.41
2023-12-10T00:40:17.407Z,99172.16
2023-12-10T00:42:45.481Z,99169.97
2023-12-10T00:45:13.704Z,99181.19
2023-12-10T00:47:41.803Z,99183.78
2023-12-10T00:50:11.672Z,99190.28
2023-12-10T00:52:40.024Z,99189.53
2023-12-10T00:55:08.644Z,99208.09
2023-12-10T00:57:36.605Z,99211.94
2023-12-10T01:00:05.768Z,99224.16
2023-12-10T01:02:33.756Z,99221.44
2023-12-10T01:05:01.691Z,99225.38
2023-12-10T01:07:30.931Z,99232.81
2023-12-10T01:09:58.722Z,99237.38
2023-12-10T01:12:26.976Z,99252.09
2023-12-10T01:14:55.353Z,99249.06
2023-12-10T01:17:23.271Z,99252.31
2023-12-10T01:19:51.199Z,99257.19
2023-12-10T01:22:19.073Z,99266.94
2023-12-10T01:24:48.478Z,99276.75
2023-12-10T01:27:16.514Z,99277.28
2023-12-10T01:29:44.753Z,99281.66
2023-12-10T01:32:12.856Z,99292.31
2023-12-10T01:34:43.372Z,99295.97
2023-12-10T01:37:11.400Z,99300.53
2023-12-10T01:39:39.259Z,99307.38
2023-12-10T01:42:09.273Z,99303.03
2023-12-10T01:44:37.319Z,99322.06
2023-12-10T01:47:06.331Z,99317.31
2023-12-10T01:49:34.360Z,99322.06
2023-12-10T01:52:03.333Z,99326.41
2023-12-10T01:54:31.430Z,99337.41
2023-12-10T01:57:05.874Z,99344.53
2023-12-10T01:59:37.159Z,99348.06
2023-12-10T02:02:05.612Z,99354.63
2023-12-10T02:04:33.743Z,99367.38
2023-12-10T02:07:02.362Z,99379.75
2023-12-10T02:09:30.244Z,99375.09
2023-12-10T02:11:58.533Z,99373.28
2023-12-10T02:14:26.746Z,99382.34
2023-12-10T02:16:56.011Z,99387.13
2023-12-10T02:19:24.020Z,99383.94
2023-12-10T02:21:53.901Z,99381.94
2023-12-10T02:24:27.164Z,99387.31
2023-12-10T02:26:57.600Z,99397.97
2023-12-10T02:29:25.886Z,99399.13
2023-12-10T02:31:55.361Z,99412.56
2023-12-10T02:34:23.793Z,99415.47
2023-12-10T02:36:51.789Z,99429.75
2023-12-10T02:39:20.808Z,99432.19
2023-12-10T02:41:48.687Z,99436.81
2023-12-10T02:44:18.012Z,99435.41
2023-12-10T02:46:46.142Z,99438.94
2023-12-10T02:49:14.669Z,99444.81
2023-12-10T02:51:42.689Z,99451.28
2023-12-10T02:54:10.901Z,99463.75
2023-12-10T02:56:38.955Z,99458.22
2023-12-10T02:59:07.007Z,99454.78
2023-12-10T03:01:36.418Z,99449.19
2023-12-10T03:04:04.838Z,99445.63
2023-12-10T03:06:32.677Z,99457.25
2023-12-10T03:09:00.526Z,99463.34
2023-12-10T03:11:28.405Z,99478.06
2023-12-10T03:13:56.360Z,99486.19
2023-12-10T03:16:24.207Z,99489.47
2023-12-10T03:18:53.555Z,99496.16
2023-12-10T03:21:21.448Z,99509.44
2023-12-10T03:23:49.244Z,99521.81
2023-12-10T03:26:17.363Z,99521.78
2023-12-10T03:28:45.723Z,99522.13
2023-12-10T03:31:13.731Z,99531.69
2023-12-10T03:33:41.758Z,99524.00
2023-12-10T03:36:14.967Z,99532.28
2023-12-10T03:38:42.857Z,99529.28
2023-12-10T03:41:10.708Z,99518.22
2023-12-10T03:43:38.636Z,99534.09
2023-12-10T03:46:06.930Z,99529.88
2023-12-10T03:48:34.851Z,99528.09
2023-12-10T03:51:03.542Z,99534.31
2023-12-10T03:53:32.733Z,99538.94
2023-12-10T03:56:00.595Z,99540.75
2023-12-10T03:58:28.426Z,99538.06
2023-12-10T04:00:56.674Z,99546.34
2023-12-10T04:03:24.746Z,99555.72
2023-12-10T04:05:52.664Z,99546.06
2023-12-10T04:08:20.619Z,99548.88
2023-12-10T04:10:49.822Z,99537.25
2023-12-10T04:13:17.922Z,99534.34
2023-12-10T04:15:46.377Z,99530.41
2023-12-10T04:18:15.525Z,99538.09
2023-12-10T04:20:44.154Z,99543.66
2023-12-10T04:23:12.635Z,99563.53
2023-12-10T04:25:40.572Z,99557.59
2023-12-10T04:28:10.169Z,99554.84
2023-12-10T04:30:38.443Z,99557.75
2023-12-10T04:33:06.506Z,99551.53
2023-12-10T04:35:34.602Z,99553.09
2023-12-10T04:38:02.429Z,99549.63
2023-12-10T04:40:30.277Z,99547.59
2023-12-10T04:42:58.287Z,99571.75
2023-12-10T04:45:28.296Z,99583.88
2023-12-10T04:47:56.383Z,99588.28
2023-12-10T04:50:24.471Z,99586.78
2023-12-10T04:52:52.340Z,99577.66
2023-12-10T04:55:20.473Z,99587.97
2023-12-10T04:57:48.396Z,99589.66
2023-12-10T05:00:17.721Z,99609.00
2023-12-10T05:02:47.407Z,99615.03
2023-12-10T05:05:16.692Z,99609.19
2023-12-10T05:07:45.180Z,99605.63
2023-12-10T05:10:14.246Z,99598.69
2023-12-10T05:12:42.277Z,99605.31
2023-12-10T05:15:11.510Z,99606.41
2023-12-10T05:17:39.429Z,99613.91
2023-12-10T05:20:10.648Z,99606.47
2023-12-10T05:22:38.904Z,99610.38
2023-12-10T05:25:08.379Z,99620.25
2023-12-10T05:27:36.315Z,99622.31
2023-12-10T05:30:04.517Z,99615.91
2023-12-10T05:32:32.853Z,99625.81
2023-12-10T05:35:01.248Z,99624.41
2023-12-10T05:37:30.594Z,99626.28
2023-12-10T05:39:59.045Z,99626.97
2023-12-10T05:42:27.377Z,99637.84
2023-12-10T05:44:56.437Z,99639.69
2023-12-10T05:47:24.911Z,99642.00
2023-12-10T05:49:53.162Z,99651.84
2023-12-10T05:52:21.068Z,99656.78
2023-12-10T05:54:50.541Z,99661.66
2023-12-10T05:57:18.620Z,99671.59
2023-12-10T05:59:46.983Z,99685.97
2023-12-10T06:02:15.719Z,99695.56
2023-12-10T06:04:43.899Z,99698.88
2023-12-10T06:07:11.891Z,99701.50
2023-12-10T06:09:40.199Z,99696.50
2023-12-10T06:12:09.765Z,99695.13
2023-12-10T06:14:37.712Z,99703.53
2023-12-10T06:17:05.973Z,99718.59
2023-12-10T06:19:33.983Z,99708.28
2023-12-10T06:22:02.221Z,99715.19
2023-12-10T06:24:30.177Z,99702.72
2023-12-10T06:26:58.048Z,99701.31
2023-12-10T06:29:27.361Z,99718.59
2023-12-10T06:31:55.511Z,99724.84
2023-12-10T06:34:24.096Z,99720.53
2023-12-10T06:36:52.291Z,99714.88
2023-12-10T06:39:20.233Z,99713.84
2023-12-10T06:41:48.231Z,99721.41
2023-12-10T06:44:22.758Z,99721.75
2023-12-10T06:46:53.204Z,99722.44
2023-12-10T06:49:21.217Z,99728.09
2023-12-10T06:51:49.417Z,99730.91
2023-12-10T06:54:17.568Z,99728.13
2023-12-10T06:56:45.482Z,99730.91
2023-12-10T06:59:13.574Z,99752.44
2023-12-10T07:01:41.679Z,99744.50
2023-12-10T07:04:11.146Z,99751.47
2023-12-10T07:06:39.244Z,99760.22
2023-12-10T07:09:07.997Z,99751.78
2023-12-10T07:11:35.997Z,99765.53
2023-12-10T07:14:04.367Z,99762.22
2023-12-10T07:16:33.021Z,99768.06
2023-12-10T07:19:01.467Z,99774.44
2023-12-10T07:21:31.403Z,99785.81
2023-12-10T07:23:59.818Z,99786.88
2023-12-10T07:26:28.328Z,99791.50
2023-12-10T07:28:57.300Z,99791.69
2023-12-10T07:31:26.320Z,99799.06
2023-12-10T07:33:55.002Z,99794.78
2023-12-10T07:36:25.060Z,99791.75
2023-12-10T07:38:54.609Z,99805.78
2023-12-10T07:41:23.707Z,99815.13
2023-12-10T07:43:51.916Z,99810.84
2023-12-10T07:46:20.464Z,99811.91
2023-12-10T07:48:49.169Z,99821.88
2023-12-10T07:51:17.386Z,99821.31
2023-12-10T07:53:46.135Z,99829.59
2023-12-10T07:56:15.817Z,99833.59
2023-12-10T07:58:44.503Z,99843.38
2023-12-10T08:01:12.631Z,99834.75
2023-12-10T08:03:40.781Z,99837.34
2023-12-10T08:06:09.687Z,99840.00
2023-12-10T08:08:37.499Z,99831.25
2023-12-10T08:11:06.781Z,99833.16
2023-12-10T08:13:37.682Z,99829.06
2023-12-10T08:16:06.800Z,99833.38
2023-12-10T08:18:35.790Z,99830.75
2023-12-10T08:21:04.038Z,99828.91
2023-12-10T08:23:33.545Z,99839.88
2023-12-10T08:26:05.199Z,99836.97
2023-12-10T08:28:33.679Z,99836.47
2023-12-10T08:31:03.323Z,99837.13
2023-12-10T08:33:31.544Z,99831.31
2023-12-10T08:35:59.652Z,99835.09
2023-12-10T08:38:27.796Z,99840.78
2023-12-10T08:40:56.657Z,99850.19
2023-12-10T08:43:24.567Z,99844.44
2023-12-10T08:45:53.310Z,99836.59
2023-12-10T08:48:22.872Z,99845.38
2023-12-10T08:50:50.842Z,99852.41
2023-12-10T08:53:18.790Z,99855.97
2023-12-10T08:55:47.610Z,99856.38
2023-12-10T08:58:15.693Z,99859.53
2023-12-10T09:00:43.954Z,99861.66
2023-12-10T09:03:12.165Z,99862.09
2023-12-10T09:05:41.724Z,99868.34
2023-12-10T09:08:09.724Z,99879.13
2023-12-10T09:10:37.740Z,99870.88
2023-12-10T09:13:05.774Z,99885.03
2023-12-10T09:15:33.740Z,99874.84
2023-12-10T09:18:01.679Z,99877.31
2023-12-10T09:20:29.929Z,99882.50
2023-12-10T09:22:59.293Z,99871.34
2023-12-10T09:25:27.312Z,99875.00
2023-12-10T09:27:55.312Z,99878.03
2023-12-10T09:30:23.578Z,99873.31
2023-12-10T09:32:51.816Z,99868.72
2023-12-10T09:35:19.998Z,99866.94
2023-12-10T09:37:47.957Z,99871.81
2023-12-10T09:40:20.623Z,99873.50
2023-12-10T09:42:49.189Z,99873.84
2023-12-10T09:45:17.432Z,99868.16
2023-12-10T09:47:46.975Z,99875.84
2023-12-10T09:50:15.474Z,99876.50
2023-12-10T09:52:43.354Z,99883.66
2023-12-10T09:55:12.013Z,99873.47
2023-12-10T09:57:42.570Z,99868.28
2023-12-10T10:00:12.057Z,99880.28
2023-12-10T10:02:40.380Z,99886.19
2023-12-10T10:05:09.834Z,99880.22
2023-12-10T10:07:38.010Z,99875.44
2023-12-10T10:10:11.997Z,99877.13
2023-12-10T10:12:40.401Z,99877.44
2023-12-10T10:15:10.589Z,99870.72
2023-12-10T10:17:39.584Z,99872.81
2023-12-10T10:20:11.441Z,99862.50
2023-12-10T10:22:39.550Z,99863.91
2023-12-10T10:25:08.081Z,99866.88
2023-12-10T10:27:36.033Z,99864.50
2023-12-10T10:30:05.036Z,99862.28
2023-12-10T10:32:36.137Z,99866.69
2023-12-10T10:35:06.109Z,99868.19
2023-12-10T10:37:39.589Z,99857.84
2023-12-10T10:40:08.864Z,99873.28
2023-12-10T10:42:36.968Z,99873.59
2023-12-10T10:45:05.387Z,99894.72
2023-12-10T10:47:36.944Z,99892.00
2023-12-10T10:50:21.421Z,99894.41
2023-12-10T10:52:54.062Z,99901.69
2023-12-10T10:55:22.938Z,99894.53
2023-12-10T10:57:50.917Z,99908.22
2023-12-10T11:00:37.278Z,99899.06
2023-12-10T11:03:09.428Z,99906.53
2023-12-10T11:05:38.681Z,99903.94
2023-12-10T11:08:07.019Z,99912.97
2023-12-10T11:10:35.692Z,99901.63
2023-12-10T11:13:03.798Z,99908.72
2023-12-10T11:15:32.796Z,99902.78
2023-12-10T11:18:02.799Z,99910.47
2023-12-10T11:20:34.330Z,99907.59
2023-12-10T11:23:04.042Z,99912.66
2023-12-10T11:25:32.421Z,99908.56
2023-12-10T11:28:28.490Z,99901.25
2023-12-10T11:30:56.719Z,99896.19
2023-12-10T11:33:24.890Z,99903.47
2023-12-10T11:36:32.263Z,99902.47
2023-12-10T11:38:48.025Z,99913.16
2023-12-10T11:41:16.128Z,99915.94
2023-12-10T11:47:50.068Z,99918.34
2023-12-10T11:50:17.955Z,99918.13
2023-12-10T11:52:47.184Z,99917.31
2023-12-10T11:55:15.447Z,99920.97
2023-12-10T11:57:44.623Z,99918.63
2023-12-10T12:00:14.326Z,99909.50
2023-12-10T12:02:43.978Z,99916.03
2023-12-10T12:05:15.130Z,99914.72
2023-12-10T12:07:45.831Z,99916.16
2023-12-10T12:10:15.156Z,99908.91
2023-12-10T12:12:44.804Z,99911.00
2023-12-10T12:15:13.960Z,99905.06
2023-12-10T12:17:43.159Z,99911.38
2023-12-10T12:20:20.269Z,99916.31
2023-12-10T12:22:49.585Z,99897.91
2023-12-10T12:25:19.440Z,99905.44
2023-12-10T12:27:48.141Z,99913.66
2023-12-10T12:30:17.879Z,99916.03
2023-12-10T12:32:46.471Z,99913.31
2023-12-10T12:35:15.363Z,99907.47
2023-12-10T12:37:43.692Z,99907.91
2023-12-10T12:40:12.991Z,99919.00
2023-12-10T12:42:42.488Z,99920.38
2023-12-10T12:45:11.354Z,99918.06
2023-12-10T12:47:39.296Z,99905.69
2023-12-10T12:50:09.099Z,99909.09
2023-12-10T12:52:37.328Z,99905.69
2023-12-10T12:55:06.267Z,99905.00
2023-12-10T12:57:34.557Z,99909.50
2023-12-10T13:00:05.872Z,99919.59
2023-12-10T13:02:33.889Z,99923.53
2023-12-10T13:05:03.400Z,99925.94
2023-12-10T13:07:34.523Z,99931.88
2023-12-10T13:10:04.896Z,99935.31
2023-12-10T13:12:33.847Z,99921.66
2023-12-10T13:15:03.947Z,99907.25
2023-12-10T13:17:32.387Z,99896.66
2023-12-10T13:20:01.805Z,99890.47
2023-12-10T13:22:30.171Z,99888.19
2023-12-10T13:24:58.954Z,99892.38
2023-12-10T13:27:27.121Z,99880.78
2023-12-10T13:29:55.564Z,99876.44
2023-12-10T13:32:25.613Z,99861.13
2023-12-10T13:34:54.047Z,99865.44
2023-12-10T13:37:22.582Z,99867.22
2023-12-10T13:39:50.547Z,99858.22
2023-12-10T13:42:18.484Z,99869.41
2023-12-10T13:44:51.109Z,99871.66
2023-12-10T13:47:23.540Z,99882.31
2023-12-10T13:49:54.610Z,99877.84
2023-12-10T13:52:24.372Z,99873.22
2023-12-10T13:54:53.957Z,99871.22
2023-12-10T13:57:22.128Z,99859.72
2023-12-10T13:59:52.261Z,99855.06
2023-12-10T14:02:43.177Z,99858.31
2023-12-10T14:05:14.679Z,99856.72
2023-12-10T14:07:44.888Z,99862.50
2023-12-10T14:10:14.441Z,99859.56
2023-12-10T14:12:42.783Z,99851.19
2023-12-10T14:15:14.086Z,99862.53
2023-12-10T14:17:42.777Z,99855.75
2023-12-10T14:20:12.711Z,99844.25
2023-12-10T14:22:42.726Z,99843.94
2023-12-10T14:25:12.657Z,99836.13
2023-12-10T14:27:40.942Z,99836.03
2023-12-10T14:30:09.824Z,99842.50
2023-12-10T14:32:38.015Z,99842.16
2023-12-10T14:35:06.790Z,99836.97
2023-12-10T14:37:34.775Z,99823.81
2023-12-10T14:40:04.454Z,99828.31
2023-12-10T14:42:32.593Z,99817.09
2023-12-10T14:45:00.604Z,99816.53
2023-12-10T14:47:28.826Z,99817.38
2023-12-10T14:49:57.277Z,99814.44
2023-12-10T14:52:25.410Z,99812.66
2023-12-10T14:54:54.266Z,99810.06
2023-12-10T14:57:24.153Z,99810.47
2023-12-10T14:59:53.561Z,99799.97
2023-12-10T15:02:21.658Z,99790.59
2023-12-10T15:04:49.779Z,99784.50
2023-12-10T15:07:17.704Z,99786.69
2023-12-10T15:09:47.349Z,99780.84
2023-12-10T15:12:16.311Z,99774.91
2023-12-10T15:14:45.895Z,99773.22
2023-12-10T15:17:14.017Z,99763.41
2023-12-10T15:19:44.962Z,99763.56
2023-12-10T15:22:16.359Z,99750.13
2023-12-10T15:24:45.232Z,99750.13
2023-12-10T15:27:13.141Z,99740.22
2023-12-10T15:29:41.235Z,99734.69
2023-12-10T15:32:10.843Z,99727.81
2023-12-10T15:34:39.067Z,99735.81
2023-12-10T15:37:07.441Z,99732.84
2023-12-10T15:39:35.354Z,99735.13
2023-12-10T15:42:03.252Z,99730.94
2023-12-10T15:44:32.158Z,99736.19
2023-12-10T15:47:00.303Z,99739.47
2023-12-10T15:49:32.311Z,99740.41
2023-12-10T15:52:04.269Z,99743.88
2023-12-10T15:54:33.230Z,99748.13
2023-12-10T15:57:05.141Z,99754.34
2023-12-10T15:59:33.681Z,99751.44
2023-12-10T16:02:03.955Z,99765.00
2023-12-10T16:04:34.883Z,99773.25
2023-12-10T16:07:03.701Z,99772.19
2023-12-10T16:09:31.927Z,99764.72
2023-12-10T16:11:59.880Z,99766.25
2023-12-10T16:14:27.932Z,99766.25
2023-12-10T16:16:56.608Z,99758.03
2023-12-10T16:19:27.460Z,99760.31
2023-12-10T16:21:57.196Z,99754.66
2023-12-10T16:24:26.391Z,99761.97
2023-12-10T16:26:54.449Z,99757.69
2023-12-10T16:29:23.734Z,99728.38
2023-12-10T16:31:51.681Z,99720.72
2023-12-10T16:34:20.887Z,99681.44
2023-12-10T16:36:48.926Z,99695.44
2023-12-10T16:39:20.587Z,99689.94
2023-12-10T16:41:47.862Z,99668.34
2023-12-10T16:44:15.831Z,99653.84
2023-12-10T16:46:43.687Z,99645.31
2023-12-10T16:49:12.502Z,99638.56
2023-12-10T16:51:40.394Z,99638.94
2023-12-10T16:54:08.890Z,99627.41
2023-12-10T16:56:38.187Z,99628.16
2023-12-10T16:59:06.069Z,99612.56
2023-12-10T17:01:34.151Z,99625.03
2023-12-10T17:04:02.235Z,99624.97
2023-12-10T17:06:30.461Z,99618.31
2023-12-10T17:08:58.407Z,99619.84
2023-12-10T17:11:29.011Z,99618.84
2023-12-10T17:13:58.375Z,99617.53
2023-12-10T17:16:26.404Z,99608.06
2023-12-10T17:18:54.953Z,99608.44
2023-12-10T17:21:22.997Z,99611.22
2023-12-10T17:23:50.897Z,99612.28
2023-12-10T17:26:18.942Z,99600.09
2023-12-10T17:28:46.929Z,99598.34
2023-12-10T17:31:16.429Z,99594.88
2023-12-10T17:33:44.777Z,99582.84
2023-12-10T17:36:12.805Z,99590.66
2023-12-10T17:38:40.861Z,99572.75
2023-12-10T17:41:08.971Z,99566.41
2023-12-10T17:43:37.036Z,99570.50
2023-12-10T17:46:05.562Z,99558.59
2023-12-10T17:48:35.316Z,99549.84
2023-12-10T17:51:09.941Z,99545.22
2023-12-10T17:53:45.441Z,99545.22
2023-12-10T17:56:15.668Z,99534.91
2023-12-10T17:58:44.536Z,99532.81
2023-12-10T18:01:13.317Z,99544.81
2023-12-10T18:03:43.015Z,99523.50
2023-12-10T18:06:11.970Z,99512.03
2023-12-10T18:08:40.292Z,99513.38
2023-12-10T18:11:08.226Z,99507.28
2023-12-10T18:13:37.277Z,99499.94
2023-12-10T18:16:06.695Z,99502.28
2023-12-10T18:18:36.166Z,99481.38
2023-12-10T18:21:06.066Z,99482.28
2023-12-10T18:23:34.830Z,99478.72
2023-12-10T18:26:04.126Z,99458.03
2023-12-10T18:28:35.088Z,99448.00
2023-12-10T18:31:03.292Z,99436.34
2023-12-10T18:33:32.007Z,99414.63
2023-12-10T18:36:00.576Z,99396.28
2023-12-10T18:38:31.231Z,99397.25
2023-12-10T18:40:59.704Z,99384.50
2023-12-10T18:43:28.427Z,99372.91
2023-12-10T18:45:58.354Z,99359.38
2023-12-10T18:48:26.497Z,99361.72
2023-12-10T18:50:54.543Z,99352.16
2023-12-10T18:53:22.984Z,99344.75
2023-12-10T18:55:53.443Z,99342.84
2023-12-10T18:58:21.777Z,99325.50
2023-12-10T19:00:51.153Z,99331.53
2023-12-10T19:03:19.371Z,99324.31
2023-12-10T19:05:47.804Z,99321.91
2023-12-10T19:08:16.772Z,99325.41
2023-12-10T19:10:50.005Z,99319.47
2023-12-10T19:13:19.581Z,99326.41
2023-12-10T19:15:50.229Z,99322.31
2023-12-10T19:18:19.433Z,99321.41
2023-12-10T19:20:48.235Z,99313.69
2023-12-10T19:23:19.397Z,99303.72
2023-12-10T19:25:48.026Z,99301.91
2023-12-10T19:28:16.958Z,99286.59
2023-12-10T19:30:47.789Z,99284.81
2023-12-10T19:33:16.280Z,99277.03
2023-12-10T19:35:44.362Z,99266.66
2023-12-10T19:38:13.356Z,99276.75
2023-12-10T19:40:42.428Z,99270.47
2023-12-10T19:43:11.754Z,99264.84
2023-12-10T19:45:41.295Z,99259.50
2023-12-10T19:48:11.295Z,99251.78
2023-12-10T19:50:39.835Z,99264.13
2023-12-10T19:53:08.308Z,99266.06
2023-12-10T19:55:37.199Z,99269.56
2023-12-10T19:59:05.293Z,99262.53
2023-12-10T20:05:35.866Z,99252.00
2023-12-10T20:08:04.673Z,99249.94
2023-12-10T20:10:33.935Z,99249.84
2023-12-10T20:13:02.613Z,99246.59
2023-12-10T20:15:31.118Z,99237.31
2023-12-10T20:17:59.907Z,99235.09
2023-12-10T20:20:28.190Z,99218.22
2023-12-10T20:22:58.248Z,99241.47
2023-12-10T20:25:32.515Z,99217.63
2023-12-10T20:28:04.489Z,99218.94
2023-12-10T20:30:34.000Z,99219.06
2023-12-10T20:33:10.533Z,99219.59
2023-12-10T20:36:18.002Z,99209.44
2023-12-10T20:38:56.610Z,99184.97
2023-12-10T20:41:29.110Z,99198.38
2023-12-10T20:44:05.403Z,99206.03
2023-12-10T20:49:06.912Z,99204.94
2023-12-10T20:51:36.151Z,99206.88
2023-12-10T20:54:27.798Z,99224.69
2023-12-10T20:56:56.569Z,99203.09
2023-12-10T20:59:34.743Z,99200.50
2023-12-10T21:02:03.881Z,99186.34
2023-12-10T21:04:35.813Z,99183.25
2023-12-10T21:07:11.425Z,99197.66
2023-12-10T21:09:44.256Z,99193.47
2023-12-10T21:12:15.055Z,99195.38
2023-12-10T21:14:44.390Z,99197.97
2023-12-10T21:17:17.327Z,99185.53
2023-12-10T21:19:50.198Z,99207.31
2023-12-10T21:22:18.628Z,99216.25
2023-12-10T21:24:48.002Z,99212.47
2023-12-10T21:27:16.775Z,99238.56
2023-12-10T21:29:45.177Z,99232.78
2023-12-10T21:32:13.114Z,99230.38
2023-12-10T21:34:41.408Z,99236.81
2023-12-10T21:37:09.498Z,99235.25
2023-12-10T21:39:37.945Z,99228.94
2023-12-10T21:42:07.809Z,99226.97
2023-12-10T21:44:39.076Z,99235.34
2023-12-10T21:47:07.198Z,99227.25
2023-12-10T21:49:39.521Z,99236.25
2023-12-10T21:52:08.701Z,99218.34
2023-12-10T21:54:36.838Z,99222.25
2023-12-10T21:57:05.870Z,99207.78
2023-12-10T21:59:35.324Z,99219.00
2023-12-10T22:02:03.619Z,99218.88
2023-12-10T22:04:31.817Z,99232.66
2023-12-10T22:07:00.056Z,99218.56
2023-12-10T22:09:28.454Z,99231.47
2023-12-10T22:11:56.505Z,99226.03
2023-12-10T22:14:24.525Z,99231.81
2023-12-10T22:16:54.104Z,99234.06
2023-12-10T22:19:22.938Z,99231.91
2023-12-10T22:21:51.047Z,99251.88
2023-12-10T22:24:19.064Z,99251.31
2023-12-10T22:26:47.011Z,99255.31
2023-12-10T22:29:15.381Z,99255.09
2023-12-10T22:31:43.293Z,99252.56
2023-12-10T22:34:12.715Z,99254.84
2023-12-10T22:36:40.834Z,99245.59
2023-12-10T22:39:09.765Z,99260.94
2023-12-10T22:41:37.840Z,99258.88
2023-12-10T22:44:06.004Z,99253.19
2023-12-10T22:46:33.860Z,99265.13
2023-12-10T22:49:02.021Z,99271.56
2023-12-10T22:51:31.375Z,99282.53
2023-12-10T22:53:59.193Z,99288.72
2023-12-10T22:56:27.093Z,99287.50
2023-12-10T22:58:55.550Z,99282.47
2023-12-10T23:01:23.748Z,99282.78
2023-12-10T23:03:52.059Z,99281.94
2023-12-10T23:06:20.036Z,99286.19
2023-12-10T23:08:49.200Z,99268.22
2023-12-10T23:11:17.101Z,99273.25
2023-12-10T23:13:44.934Z,99268.22
2023-12-10T23:16:13.235Z,99263.63
2023-12-10T23:18:41.810Z,99266.63
2023-12-10T23:21:09.996Z,99247.31
2023-12-10T23:23:38.358Z,99252.16
2023-12-10T23:26:08.278Z,99230.69
2023-12-10T23:28:36.590Z,99226.53
2023-12-10T23:31:04.671Z,99242.78
2023-12-10T23:33:32.922Z,99249.66
2023-12-10T23:36:01.040Z,99243.94
2023-12-10T23:38:29.009Z,99229.41
2023-12-10T23:40:57.043Z,99235.34
2023-12-10T23:43:26.267Z,99240.00
2023-12-10T23:45:54.937Z,99236.94
2023-12-10T23:48:23.327Z,99232.47
2023-12-10T23:50:51.255Z,99231.31
2023-12-10T23:53:19.138Z,99221.19
2023-12-10T23:55:47.543Z,99227.03
2023-12-10T23:58:18.624Z,99222.28
